Time;durP1;ratioP1;P1;durP2;ratioP2;P2;SDS_P1;SDS_P2;PMS_P1;PMS_P2;Temp;Humidity;BMP_temperature;BMP_pressure;BME280_temperature;BME280_humidity;BME280_pressure;Samples;Min_cycle;Max_cycle;Signal;HPM_P1;HPM_P2
2023/12/20 00:01:12;;;;;;;15.27;10.83;;;;;;;;;;4986836;28;20240;-73
2023/12/20 00:03:38;;;;;;;14.90;11.00;;;;;;;;;;4978103;28;20192;-73
2023/12/20 00:06:04;;;;;;;15.20;10.80;;;;;;;;;;4979697;28;20268;-73
2023/12/20 00:08:30;;;;;;;14.37;10.77;;;;;;;;;;4976208;28;20624;-73
2023/12/20 00:10:56;;;;;;;16.20;11.53;;;;;;;;;;4980238;28;20216;-73
2023/12/20 00:13:23;;;;;;;14.87;11.03;;;;;;;;;;4963634;28;20391;-73
2023/12/20 00:15:49;;;;;;;14.40;11.83;;;;;;;;;;4979567;28;20634;-73
2023/12/20 00:18:15;;;;;;;14.83;11.13;;;;;;;;;;4979597;28;20743;-73
2023/12/20 00:20:41;;;;;;;12.63;10.17;;;;;;;;;;4979143;28;20558;-73
2023/12/20 00:23:07;;;;;;;12.83;10.53;;;;;;;;;;4978380;28;20731;-74
2023/12/20 00:25:35;;;;;;;15.00;10.67;;;;;;;;;;4986091;28;20191;-73
2023/12/20 00:28:02;;;;;;;13.07;10.27;;;;;;;;;;4993250;28;20198;-73
2023/12/20 00:30:28;;;;;;;12.70;9.97;;;;;;;;;;4987696;28;20646;-73
2023/12/20 00:32:54;;;;;;;14.07;10.47;;;;;;;;;;4969970;28;20191;-73
2023/12/20 00:35:21;;;;;;;12.93;10.10;;;;;;;;;;4989148;28;20172;-73
2023/12/20 00:37:47;;;;;;;14.37;10.93;;;;;;;;;;4986874;28;20191;-73
2023/12/20 00:40:13;;;;;;;15.57;11.47;;;;;;;;;;4984740;28;20597;-73
2023/12/20 00:42:39;;;;;;;13.10;10.00;;;;;;;;;;4986576;28;20296;-73
2023/12/20 00:45:06;;;;;;;11.87;9.37;;;;;;;;;;4984258;28;20199;-73
2023/12/20 00:47:32;;;;;;;12.90;10.57;;;;;;;;;;4990457;28;20270;-73
2023/12/20 00:49:58;;;;;;;14.97;9.30;;;;;;;;;;4990503;28;20350;-73
2023/12/20 00:52:25;;;;;;;13.97;10.13;;;;;;;;;;4983020;28;20661;-73
2023/12/20 00:54:52;;;;;;;12.17;9.53;;;;;;;;;;4986946;28;20180;-73
2023/12/20 00:57:18;;;;;;;13.83;9.80;;;;;;;;;;4988875;28;20307;-73
2023/12/20 00:59:44;;;;;;;12.33;9.90;;;;;;;;;;4989610;28;20211;-73
2023/12/20 01:02:10;;;;;;;13.33;9.57;;;;;;;;;;4988303;28;20191;-73
2023/12/20 01:04:36;;;;;;;10.70;8.77;;;;;;;;;;4987925;28;20205;-73
2023/12/20 01:07:02;;;;;;;12.47;9.10;;;;;;;;;;4986155;28;20191;-74
2023/12/20 01:09:28;;;;;;;13.43;10.13;;;;;;;;;;4987533;28;20191;-73
2023/12/20 01:11:54;;;;;;;11.63;8.67;;;;;;;;;;4985372;28;20271;-73
2023/12/20 01:14:21;;;;;;;11.40;8.83;;;;;;;;;;4987334;28;20239;-73
2023/12/20 01:16:47;;;;;;;11.03;8.93;;;;;;;;;;4986092;28;20211;-73
2023/12/20 01:19:13;;;;;;;11.27;8.97;;;;;;;;;;4988722;28;20202;-73
2023/12/20 01:21:40;;;;;;;11.97;9.03;;;;;;;;;;4982439;28;20303;-73
2023/12/20 01:24:06;;;;;;;13.40;9.17;;;;;;;;;;4988818;28;20615;-73
2023/12/20 01:26:32;;;;;;;12.70;9.23;;;;;;;;;;4984732;28;20184;-73
2023/12/20 01:28:58;;;;;;;12.47;9.03;;;;;;;;;;4985295;28;20219;-73
2023/12/20 01:31:24;;;;;;;10.77;8.43;;;;;;;;;;4983431;28;20238;-74
2023/12/20 01:33:51;;;;;;;11.43;8.30;;;;;;;;;;4988479;28;20226;-73
2023/12/20 01:36:17;;;;;;;11.73;9.17;;;;;;;;;;4984202;28;20279;-73
2023/12/20 01:38:43;;;;;;;9.90;8.00;;;;;;;;;;4985063;28;20215;-73
2023/12/20 01:41:09;;;;;;;11.13;7.93;;;;;;;;;;4982816;28;20226;-73
2023/12/20 01:43:35;;;;;;;9.97;7.97;;;;;;;;;;4979595;28;20180;-73
2023/12/20 01:46:03;;;;;;;11.53;8.40;;;;;;;;;;4987011;28;20287;-74
2023/12/20 01:48:32;;;;;;;9.90;7.13;;;;;;;;;;4998897;28;20196;-73
2023/12/20 01:50:58;;;;;;;9.37;7.40;;;;;;;;;;4982121;28;20271;-73
2023/12/20 01:53:25;;;;;;;11.97;8.63;;;;;;;;;;4986583;28;20294;-73
2023/12/20 01:55:53;;;;;;;9.57;7.33;;;;;;;;;;4984933;28;20242;-73
2023/12/20 01:58:19;;;;;;;11.50;9.10;;;;;;;;;;4988887;28;20278;-73
2023/12/20 02:00:45;;;;;;;10.20;8.00;;;;;;;;;;4987257;28;20212;-73
2023/12/20 02:03:12;;;;;;;9.47;7.23;;;;;;;;;;4981374;28;20611;-73
2023/12/20 02:05:39;;;;;;;10.50;7.80;;;;;;;;;;4969059;28;20179;-73
2023/12/20 02:08:06;;;;;;;8.50;6.77;;;;;;;;;;4987815;28;20179;-74
2023/12/20 02:10:32;;;;;;;8.70;7.10;;;;;;;;;;4977221;28;20204;-73
2023/12/20 02:12:59;;;;;;;9.00;7.33;;;;;;;;;;4988670;28;20307;-73
2023/12/20 02:15:25;;;;;;;10.30;7.13;;;;;;;;;;4984542;28;20195;-73
2023/12/20 02:17:51;;;;;;;8.30;6.90;;;;;;;;;;4986819;28;20258;-73
2023/12/20 02:20:18;;;;;;;9.97;8.60;;;;;;;;;;4988003;28;20614;-73
2023/12/20 02:22:44;;;;;;;8.20;7.20;;;;;;;;;;4986876;28;20192;-73
2023/12/20 02:25:10;;;;;;;9.40;7.60;;;;;;;;;;4987325;28;20184;-73
2023/12/20 02:27:37;;;;;;;9.07;7.03;;;;;;;;;;4988155;28;20271;-73
2023/12/20 02:30:03;;;;;;;10.23;6.90;;;;;;;;;;4987048;28;20231;-73
2023/12/20 02:32:29;;;;;;;7.97;6.20;;;;;;;;;;4984117;28;20191;-73
2023/12/20 02:34:56;;;;;;;7.90;6.80;;;;;;;;;;4985926;28;20273;-73
2023/12/20 02:37:22;;;;;;;8.30;6.30;;;;;;;;;;4988555;28;20278;-74
2023/12/20 02:39:48;;;;;;;7.27;6.17;;;;;;;;;;4987517;28;20244;-73
2023/12/20 02:42:14;;;;;;;7.53;5.97;;;;;;;;;;4985411;28;20196;-73
2023/12/20 02:44:40;;;;;;;9.00;6.73;;;;;;;;;;4982064;28;20194;-74
2023/12/20 02:47:07;;;;;;;7.90;6.33;;;;;;;;;;4988274;28;20211;-73
2023/12/20 02:49:33;;;;;;;8.27;6.33;;;;;;;;;;4987873;28;20180;-73
2023/12/20 02:51:59;;;;;;;8.33;5.90;;;;;;;;;;4986070;28;20641;-73
2023/12/20 02:54:25;;;;;;;7.10;5.90;;;;;;;;;;4983107;28;20192;-73
2023/12/20 02:56:51;;;;;;;7.80;6.17;;;;;;;;;;4990855;28;20641;-73
2023/12/20 02:59:17;;;;;;;6.97;5.97;;;;;;;;;;4984904;28;20223;-73
2023/12/20 03:01:46;;;;;;;7.47;6.10;;;;;;;;;;4985990;28;20204;-73
2023/12/20 03:04:13;;;;;;;7.43;5.90;;;;;;;;;;4994443;28;20187;-73
2023/12/20 03:06:39;;;;;;;9.07;6.57;;;;;;;;;;4992567;28;20275;-73
2023/12/20 03:09:05;;;;;;;8.47;6.20;;;;;;;;;;4987799;28;20236;-73
2023/12/20 03:11:31;;;;;;;9.20;6.47;;;;;;;;;;4984417;28;20628;-73
2023/12/20 03:13:58;;;;;;;8.83;6.40;;;;;;;;;;4998702;28;20202;-73
2023/12/20 03:16:24;;;;;;;8.87;6.73;;;;;;;;;;4990111;28;20195;-73
2023/12/20 03:18:50;;;;;;;7.03;5.83;;;;;;;;;;4992172;28;20347;-73
2023/12/20 03:21:16;;;;;;;10.57;6.43;;;;;;;;;;4987989;28;20251;-73
2023/12/20 03:23:43;;;;;;;8.33;6.60;;;;;;;;;;4992045;28;20266;-73
2023/12/20 03:26:09;;;;;;;8.47;6.77;;;;;;;;;;4990547;28;20192;-73
2023/12/20 03:28:36;;;;;;;9.43;6.83;;;;;;;;;;4990813;28;20188;-73
2023/12/20 03:31:02;;;;;;;8.13;6.53;;;;;;;;;;4986374;28;20211;-73
2023/12/20 03:33:29;;;;;;;9.30;6.73;;;;;;;;;;4991089;28;20278;-72
2023/12/20 03:35:55;;;;;;;10.20;6.90;;;;;;;;;;4992400;28;20215;-72
2023/12/20 03:38:23;;;;;;;10.83;7.27;;;;;;;;;;4990047;28;20180;-73
2023/12/20 03:40:49;;;;;;;10.10;7.70;;;;;;;;;;4986823;28;20266;-72
2023/12/20 03:43:16;;;;;;;8.67;6.97;;;;;;;;;;4989750;28;20194;-73
2023/12/20 03:45:42;;;;;;;10.17;7.63;;;;;;;;;;4990207;28;20616;-73
2023/12/20 03:48:09;;;;;;;8.20;6.70;;;;;;;;;;4989782;28;20554;-73
2023/12/20 03:50:35;;;;;;;7.77;6.87;;;;;;;;;;4991928;28;20210;-72
2023/12/20 03:53:01;;;;;;;9.23;6.63;;;;;;;;;;4990441;28;20187;-72
2023/12/20 03:55:28;;;;;;;8.07;6.83;;;;;;;;;;4991134;28;20192;-73
2023/12/20 03:57:54;;;;;;;9.80;7.77;;;;;;;;;;4986981;28;20532;-72
2023/12/20 04:00:20;;;;;;;9.87;7.30;;;;;;;;;;4990711;28;20718;-73
2023/12/20 04:02:46;;;;;;;10.10;7.27;;;;;;;;;;4989070;28;20180;-72
2023/12/20 04:05:12;;;;;;;8.53;6.77;;;;;;;;;;4990856;28;20660;-72
2023/12/20 04:07:39;;;;;;;8.63;7.23;;;;;;;;;;4985822;28;20721;-73
2023/12/20 04:10:05;;;;;;;8.83;7.30;;;;;;;;;;4989381;28;20215;-72
2023/12/20 04:12:32;;;;;;;8.50;7.47;;;;;;;;;;4989182;28;20215;-72
2023/12/20 04:14:58;;;;;;;9.73;7.87;;;;;;;;;;4989304;28;20291;-73
2023/12/20 04:17:24;;;;;;;8.50;7.17;;;;;;;;;;4990025;28;20187;-73
2023/12/20 04:19:50;;;;;;;8.97;7.17;;;;;;;;;;4989732;28;20218;-72
2023/12/20 04:22:17;;;;;;;8.20;6.37;;;;;;;;;;4986047;28;20231;-72
2023/12/20 04:24:43;;;;;;;9.17;6.37;;;;;;;;;;4983815;28;20683;-73
2023/12/20 04:27:10;;;;;;;8.43;7.10;;;;;;;;;;4984290;28;20233;-73
2023/12/20 04:29:36;;;;;;;7.77;6.93;;;;;;;;;;4986181;28;20196;-73
2023/12/20 04:32:02;;;;;;;8.57;7.17;;;;;;;;;;4989372;28;20640;-72
2023/12/20 04:34:28;;;;;;;8.30;7.40;;;;;;;;;;4987044;28;20181;-73
2023/12/20 04:36:54;;;;;;;6.73;6.03;;;;;;;;;;4982527;28;20235;-73
2023/12/20 04:39:21;;;;;;;7.47;6.20;;;;;;;;;;4980942;28;20227;-72
2023/12/20 04:41:47;;;;;;;6.83;5.97;;;;;;;;;;4984400;28;20558;-72
2023/12/20 04:44:13;;;;;;;7.53;5.37;;;;;;;;;;4989075;28;20751;-72
2023/12/20 04:46:40;;;;;;;8.13;5.80;;;;;;;;;;4989085;28;20299;-73
2023/12/20 04:49:06;;;;;;;8.53;6.20;;;;;;;;;;4989534;28;20184;-72
2023/12/20 04:51:36;;;;;;;5.73;5.03;;;;;;;;;;4990128;28;20714;-72
2023/12/20 04:54:02;;;;;;;8.10;5.73;;;;;;;;;;4990751;28;20234;-73
2023/12/20 04:56:28;;;;;;;7.10;5.47;;;;;;;;;;4990863;28;20300;-73
2023/12/20 04:58:55;;;;;;;7.13;5.67;;;;;;;;;;4989473;28;20187;-73
2023/12/20 05:01:21;;;;;;;7.33;5.83;;;;;;;;;;4988140;28;20219;-73
2023/12/20 05:03:47;;;;;;;6.60;5.27;;;;;;;;;;4989587;28;20188;-73
2023/12/20 05:06:14;;;;;;;8.83;6.00;;;;;;;;;;4987231;28;20255;-72
2023/12/20 05:08:40;;;;;;;7.20;5.87;;;;;;;;;;4984156;28;20180;-73
2023/12/20 05:11:07;;;;;;;6.40;5.43;;;;;;;;;;4983549;28;20686;-73
2023/12/20 05:13:33;;;;;;;7.10;5.87;;;;;;;;;;4989590;28;20207;-72
2023/12/20 05:15:59;;;;;;;10.23;6.80;;;;;;;;;;4981679;28;20214;-73
2023/12/20 05:18:25;;;;;;;10.70;6.20;;;;;;;;;;4980178;28;20179;-72
2023/12/20 05:20:52;;;;;;;8.90;5.73;;;;;;;;;;4988242;28;20243;-72
2023/12/20 05:23:18;;;;;;;7.33;5.00;;;;;;;;;;4983132;28;20192;-72
2023/12/20 05:25:44;;;;;;;9.33;6.57;;;;;;;;;;4989080;28;20207;-72
2023/12/20 05:28:10;;;;;;;7.03;5.53;;;;;;;;;;4988823;28;20188;-72
2023/12/20 05:30:36;;;;;;;6.53;5.17;;;;;;;;;;4987213;28;20203;-72
2023/12/20 05:33:02;;;;;;;6.30;5.30;;;;;;;;;;4986718;28;20202;-73
2023/12/20 05:35:29;;;;;;;7.97;5.80;;;;;;;;;;4989012;28;20195;-72
2023/12/20 05:37:55;;;;;;;9.30;7.30;;;;;;;;;;4989307;28;20738;-72
2023/12/20 05:40:21;;;;;;;9.03;7.13;;;;;;;;;;4988393;28;20371;-72
2023/12/20 05:42:48;;;;;;;8.67;6.20;;;;;;;;;;4982407;28;20187;-72
2023/12/20 05:45:15;;;;;;;7.57;5.33;;;;;;;;;;4988853;28;20266;-72
2023/12/20 05:47:41;;;;;;;6.87;5.33;;;;;;;;;;4987645;28;20184;-72
2023/12/20 05:50:07;;;;;;;6.13;5.00;;;;;;;;;;4987758;28;20214;-72
2023/12/20 05:52:34;;;;;;;5.83;5.10;;;;;;;;;;4978272;28;20197;-72
2023/12/20 05:55:03;;;;;;;8.60;6.20;;;;;;;;;;4981840;28;20278;-72
2023/12/20 05:57:29;;;;;;;9.50;6.17;;;;;;;;;;4988586;28;20267;-72
2023/12/20 05:59:56;;;;;;;10.30;6.70;;;;;;;;;;4988139;28;20671;-72
2023/12/20 06:02:22;;;;;;;8.00;6.17;;;;;;;;;;4985100;28;20578;-72
2023/12/20 06:04:48;;;;;;;5.50;4.83;;;;;;;;;;4987340;28;20175;-72
2023/12/20 06:07:14;;;;;;;6.27;5.00;;;;;;;;;;4988823;28;20263;-72
2023/12/20 06:09:40;;;;;;;8.30;6.20;;;;;;;;;;4987233;28;20211;-72
2023/12/20 06:12:08;;;;;;;6.77;4.93;;;;;;;;;;4989268;28;20222;-72
2023/12/20 06:14:34;;;;;;;7.87;6.20;;;;;;;;;;4987971;28;20214;-73
2023/12/20 06:17:04;;;;;;;5.47;4.97;;;;;;;;;;4989677;28;20191;-72
2023/12/20 06:19:30;;;;;;;5.70;5.10;;;;;;;;;;4989262;28;20188;-72
2023/12/20 06:21:56;;;;;;;5.27;4.57;;;;;;;;;;4979316;28;20205;-73
2023/12/20 06:24:22;;;;;;;6.50;5.30;;;;;;;;;;4980511;28;20180;-72
2023/12/20 06:26:48;;;;;;;7.07;5.20;;;;;;;;;;4981993;28;20207;-72
2023/12/20 06:29:14;;;;;;;5.73;5.10;;;;;;;;;;4984417;28;20587;-72
2023/12/20 06:31:40;;;;;;;7.63;6.00;;;;;;;;;;4967100;28;20215;-73
2023/12/20 06:34:07;;;;;;;7.03;5.57;;;;;;;;;;4993347;28;20271;-72
2023/12/20 06:36:33;;;;;;;11.47;7.30;;;;;;;;;;4992382;28;20184;-72
2023/12/20 06:38:59;;;;;;;10.43;7.23;;;;;;;;;;4992738;28;20176;-73
2023/12/20 06:41:25;;;;;;;9.03;7.33;;;;;;;;;;4988578;28;20699;-72
2023/12/20 06:43:53;;;;;;;11.60;6.57;;;;;;;;;;4986038;28;20711;-73
2023/12/20 06:46:19;;;;;;;6.80;5.80;;;;;;;;;;4993173;28;20199;-73
2023/12/20 06:48:45;;;;;;;9.73;6.70;;;;;;;;;;4985912;28;20183;-73
2023/12/20 06:51:17;;;;;;;6.43;5.17;;;;;;;;;;4992761;28;20210;-72
2023/12/20 06:53:43;;;;;;;9.63;6.63;;;;;;;;;;4987630;28;20191;-73
2023/12/20 06:56:14;;;;;;;7.90;6.10;;;;;;;;;;4975182;28;20188;-73
2023/12/20 06:58:40;;;;;;;8.53;6.73;;;;;;;;;;4983921;28;20533;-73
2023/12/20 07:01:06;;;;;;;8.13;6.53;;;;;;;;;;4984385;28;20679;-72
2023/12/20 07:03:32;;;;;;;9.00;6.00;;;;;;;;;;4989037;28;20188;-72
2023/12/20 07:05:58;;;;;;;7.50;6.10;;;;;;;;;;4987377;28;20779;-73
2023/12/20 07:08:25;;;;;;;7.47;5.87;;;;;;;;;;4985579;28;20190;-72
2023/12/20 07:10:51;;;;;;;10.17;7.60;;;;;;;;;;4989163;28;20196;-72
2023/12/20 07:13:17;;;;;;;10.27;8.32;;;;;;;;;;4983360;28;20664;-72
2023/12/20 07:15:43;;;;;;;10.50;7.07;;;;;;;;;;4988285;28;20188;-73
2023/12/20 07:18:09;;;;;;;7.63;6.47;;;;;;;;;;4988883;28;20203;-72
2023/12/20 07:20:35;;;;;;;9.13;6.57;;;;;;;;;;4988234;28;20310;-73
2023/12/20 07:23:01;;;;;;;7.80;5.77;;;;;;;;;;4988215;28;20750;-72
2023/12/20 07:25:27;;;;;;;8.50;6.00;;;;;;;;;;4989424;28;20179;-73
2023/12/20 07:27:53;;;;;;;8.03;6.30;;;;;;;;;;4987155;28;20176;-73
2023/12/20 07:30:19;;;;;;;9.07;6.57;;;;;;;;;;4987760;28;21167;-73
2023/12/20 07:32:47;;;;;;;9.70;5.90;;;;;;;;;;4987696;28;20192;-72
2023/12/20 07:35:13;;;;;;;7.97;6.47;;;;;;;;;;4987752;28;20695;-73
2023/12/20 07:37:39;;;;;;;8.20;5.60;;;;;;;;;;4986281;28;20180;-73
2023/12/20 07:40:05;;;;;;;9.87;7.00;;;;;;;;;;4987237;28;20230;-73
2023/12/20 07:42:32;;;;;;;7.87;5.93;;;;;;;;;;4987679;28;20192;-73
2023/12/20 07:44:58;;;;;;;9.10;6.20;;;;;;;;;;4987956;28;20564;-72
2023/12/20 07:47:25;;;;;;;7.37;5.80;;;;;;;;;;4988947;28;20214;-72
2023/12/20 07:49:52;;;;;;;7.93;5.90;;;;;;;;;;4988378;28;20200;-72
2023/12/20 07:52:18;;;;;;;6.77;5.50;;;;;;;;;;4987116;28;20176;-72
2023/12/20 07:54:45;;;;;;;9.70;6.60;;;;;;;;;;4987950;28;20218;-72
2023/12/20 07:57:12;;;;;;;12.10;8.20;;;;;;;;;;4987821;28;20211;-72
2023/12/20 07:59:38;;;;;;;11.53;8.00;;;;;;;;;;4986249;28;20683;-72
2023/12/20 08:02:04;;;;;;;12.10;8.30;;;;;;;;;;4985554;28;20294;-72
2023/12/20 08:04:30;;;;;;;9.07;7.70;;;;;;;;;;4987706;28;20727;-73
2023/12/20 08:06:56;;;;;;;11.63;7.60;;;;;;;;;;4987592;28;20278;-73
2023/12/20 08:09:22;;;;;;;11.87;6.63;;;;;;;;;;4988401;28;20552;-73
2023/12/20 08:11:49;;;;;;;11.37;7.70;;;;;;;;;;4986076;28;20653;-72
2023/12/20 08:14:15;;;;;;;9.27;6.30;;;;;;;;;;4986282;28;20207;-72
2023/12/20 08:16:41;;;;;;;11.20;7.37;;;;;;;;;;4987475;28;20192;-72
2023/12/20 08:19:07;;;;;;;11.33;7.10;;;;;;;;;;4970827;28;20187;-72
2023/12/20 08:21:33;;;;;;;11.77;6.97;;;;;;;;;;4986044;28;20633;-73
2023/12/20 08:24:02;;;;;;;9.13;6.47;;;;;;;;;;4987098;28;20183;-73
2023/12/20 08:26:29;;;;;;;8.13;6.00;;;;;;;;;;4986058;28;20188;-72
2023/12/20 08:28:55;;;;;;;10.23;6.90;;;;;;;;;;4986451;28;20619;-74
2023/12/20 08:31:21;;;;;;;9.83;6.00;;;;;;;;;;4985669;28;20238;-76
2023/12/20 08:33:48;;;;;;;9.30;5.40;;;;;;;;;;4984349;28;20625;-73
2023/12/20 08:36:14;;;;;;;9.73;6.53;;;;;;;;;;4986209;28;20786;-74
2023/12/20 08:38:41;;;;;;;11.70;6.70;;;;;;;;;;4988850;28;20188;-78
2023/12/20 08:41:07;;;;;;;7.43;5.57;;;;;;;;;;4988443;28;20208;-74
2023/12/20 08:43:34;;;;;;;8.37;6.07;;;;;;;;;;4988467;28;20378;-77
2023/12/20 08:46:01;;;;;;;10.10;6.03;;;;;;;;;;4988713;28;20212;-76
2023/12/20 08:48:27;;;;;;;10.43;6.40;;;;;;;;;;4987479;28;20218;-78
2023/12/20 08:50:53;;;;;;;8.37;5.90;;;;;;;;;;4987032;28;20208;-78
2023/12/20 08:53:19;;;;;;;9.40;6.53;;;;;;;;;;4970537;28;20656;-78
2023/12/20 08:55:45;;;;;;;16.30;9.03;;;;;;;;;;4986916;28;20187;-78
2023/12/20 08:58:12;;;;;;;14.83;9.07;;;;;;;;;;4986030;28;20262;-78
2023/12/20 09:00:38;;;;;;;12.37;8.70;;;;;;;;;;4989069;28;20235;-78
2023/12/20 09:03:05;;;;;;;12.03;7.77;;;;;;;;;;4987350;28;20188;-78
2023/12/20 09:05:31;;;;;;;13.13;7.20;;;;;;;;;;4986683;28;20863;-77
2023/12/20 09:07:57;;;;;;;13.00;7.40;;;;;;;;;;4986519;28;20203;-78
2023/12/20 09:10:23;;;;;;;11.67;6.87;;;;;;;;;;4986570;28;20602;-78
2023/12/20 09:12:59;;;;;;;8.47;5.87;;;;;;;;;;4985099;28;20254;-78
2023/12/20 09:15:25;;;;;;;9.53;6.13;;;;;;;;;;4987704;28;20278;-78
2023/12/20 09:17:52;;;;;;;8.93;5.67;;;;;;;;;;4986035;28;20188;-78
2023/12/20 09:20:18;;;;;;;10.17;5.60;;;;;;;;;;4985392;28;20235;-78
2023/12/20 09:22:44;;;;;;;6.23;4.90;;;;;;;;;;4985042;28;20180;-78
2023/12/20 09:25:11;;;;;;;7.43;5.07;;;;;;;;;;4986308;28;20226;-78
2023/12/20 09:27:37;;;;;;;8.53;5.00;;;;;;;;;;4985390;28;20190;-78
2023/12/20 09:30:05;;;;;;;8.40;4.83;;;;;;;;;;4984665;28;20692;-78
2023/12/20 09:32:32;;;;;;;6.10;4.77;;;;;;;;;;4983536;28;20200;-78
2023/12/20 09:34:58;;;;;;;6.67;4.83;;;;;;;;;;4968171;28;20207;-78
2023/12/20 09:37:27;;;;;;;7.57;4.97;;;;;;;;;;4979561;28;20188;-78
2023/12/20 09:39:53;;;;;;;5.60;4.70;;;;;;;;;;4963819;28;20258;-78
2023/12/20 09:42:24;;;;;;;5.40;4.83;;;;;;;;;;4981564;28;20573;-78
2023/12/20 09:44:50;;;;;;;6.97;4.73;;;;;;;;;;4988578;28;20183;-78
2023/12/20 09:47:21;;;;;;;6.87;4.33;;;;;;;;;;4986779;28;20176;-78
2023/12/20 09:49:47;;;;;;;7.33;3.53;;;;;;;;;;4981697;28;20690;-78
2023/12/20 09:52:13;;;;;;;5.90;2.90;;;;;;;;;;4985613;28;20202;-78
2023/12/20 09:54:40;;;;;;;7.07;3.10;;;;;;;;;;4969467;28;20211;-78
2023/12/20 09:57:07;;;;;;;6.00;2.73;;;;;;;;;;4985426;28;20271;-78
2023/12/20 09:59:33;;;;;;;9.20;3.10;;;;;;;;;;4985681;28;20625;-78
2023/12/20 10:02:03;;;;;;;9.70;3.20;;;;;;;;;;4985049;28;20215;-78
2023/12/20 10:04:32;;;;;;;5.97;2.83;;;;;;;;;;4987801;28;20172;-78
2023/12/20 10:07:03;;;;;;;6.07;2.70;;;;;;;;;;4993826;28;20207;-76
2023/12/20 10:09:30;;;;;;;5.77;3.03;;;;;;;;;;4993623;28;20517;-76
2023/12/20 10:11:57;;;;;;;7.93;3.20;;;;;;;;;;4986626;28;20659;-78
2023/12/20 10:14:23;;;;;;;7.23;3.20;;;;;;;;;;5001787;28;20824;-77
2023/12/20 10:16:49;;;;;;;6.40;3.67;;;;;;;;;;4989376;28;20195;-77
2023/12/20 10:19:17;;;;;;;6.43;3.27;;;;;;;;;;4998841;28;20195;-77
2023/12/20 10:21:44;;;;;;;7.23;3.70;;;;;;;;;;4991089;28;20222;-77
2023/12/20 10:24:17;;;;;;;5.27;3.10;;;;;;;;;;4990043;28;20664;-79
2023/12/20 10:26:43;;;;;;;8.73;2.87;;;;;;;;;;4993398;28;20649;-77
2023/12/20 10:29:10;;;;;;;6.53;3.20;;;;;;;;;;4994625;28;20188;-77
2023/12/20 10:31:40;;;;;;;5.30;2.80;;;;;;;;;;4990344;28;20684;-77
2023/12/20 10:34:06;;;;;;;7.23;3.03;;;;;;;;;;4993023;28;20227;-77
2023/12/20 10:36:33;;;;;;;6.83;2.80;;;;;;;;;;4997187;28;20242;-77
2023/12/20 10:38:59;;;;;;;9.00;3.30;;;;;;;;;;4992028;28;20196;-77
2023/12/20 10:41:30;;;;;;;6.37;2.87;;;;;;;;;;4991098;28;20208;-77
2023/12/20 10:43:59;;;;;;;6.17;3.07;;;;;;;;;;4997012;28;20190;-77
2023/12/20 10:46:26;;;;;;;8.27;2.90;;;;;;;;;;4993878;28;20734;-79
2023/12/20 10:48:54;;;;;;;6.23;2.60;;;;;;;;;;4993489;28;20184;-77
2023/12/20 10:51:21;;;;;;;8.57;2.97;;;;;;;;;;4990532;28;20220;-77
2023/12/20 10:53:48;;;;;;;7.43;2.87;;;;;;;;;;4990397;28;20183;-77
2023/12/20 10:56:16;;;;;;;6.07;2.50;;;;;;;;;;4991739;28;20183;-77
2023/12/20 10:58:43;;;;;;;7.90;3.00;;;;;;;;;;4995814;28;20192;-77
2023/12/20 11:01:09;;;;;;;5.83;2.40;;;;;;;;;;4981655;28;20219;-77
2023/12/20 11:03:39;;;;;;;9.17;2.90;;;;;;;;;;5007117;28;20273;-78
2023/12/20 11:06:21;;;;;;;6.30;2.90;;;;;;;;;;4990220;28;20184;-78
2023/12/20 11:08:48;;;;;;;8.60;2.80;;;;;;;;;;4986367;28;20187;-75
2023/12/20 11:11:17;;;;;;;5.10;2.67;;;;;;;;;;4990873;28;20208;-78
2023/12/20 11:14:08;;;;;;;6.70;2.50;;;;;;;;;;4992324;28;20203;-77
2023/12/20 11:16:37;;;;;;;5.67;2.50;;;;;;;;;;4987513;28;20192;-78
2023/12/20 11:19:06;;;;;;;6.40;2.73;;;;;;;;;;4991200;28;20205;-78
2023/12/20 11:21:33;;;;;;;6.73;2.53;;;;;;;;;;4983321;28;20756;-78
2023/12/20 11:24:03;;;;;;;9.10;3.33;;;;;;;;;;4992880;28;20263;-78
2023/12/20 11:26:29;;;;;;;6.70;2.57;;;;;;;;;;4992976;28;20271;-78
2023/12/20 11:29:22;;;;;;;9.13;2.90;;;;;;;;;;4992063;28;20219;-78
2023/12/20 11:31:48;;;;;;;6.83;2.60;;;;;;;;;;4990241;28;20270;-78
2023/12/20 11:34:14;;;;;;;6.73;2.60;;;;;;;;;;4992499;28;20188;-78
2023/12/20 11:36:40;;;;;;;8.90;2.43;;;;;;;;;;5006665;28;20192;-78
2023/12/20 11:39:08;;;;;;;5.53;2.40;;;;;;;;;;5000374;28;20258;-79
2023/12/20 11:41:34;;;;;;;3.93;2.30;;;;;;;;;;4977837;28;20207;-79
2023/12/20 11:44:01;;;;;;;5.57;2.30;;;;;;;;;;4993801;28;20197;-81
2023/12/20 11:46:27;;;;;;;7.90;2.70;;;;;;;;;;4991592;28;20201;-79
2023/12/20 11:48:53;;;;;;;5.80;3.07;;;;;;;;;;4990855;28;20191;-78
2023/12/20 11:51:19;;;;;;;7.00;2.97;;;;;;;;;;4991228;28;20220;-76
2023/12/20 11:53:45;;;;;;;7.83;2.97;;;;;;;;;;4994962;28;20715;-77
2023/12/20 11:56:12;;;;;;;7.70;2.70;;;;;;;;;;4988730;28;20622;-75
2023/12/20 11:58:38;;;;;;;5.97;2.90;;;;;;;;;;4989969;28;20192;-74
2023/12/20 12:01:07;;;;;;;6.53;2.83;;;;;;;;;;4989904;28;20226;-74
2023/12/20 12:03:33;;;;;;;6.07;2.93;;;;;;;;;;4990911;28;20267;-74
2023/12/20 12:06:00;;;;;;;5.47;2.77;;;;;;;;;;4990011;28;20184;-74
2023/12/20 12:08:26;;;;;;;6.60;2.90;;;;;;;;;;4988809;28;20207;-74
2023/12/20 12:10:53;;;;;;;4.80;2.10;;;;;;;;;;4990013;28;20734;-75
2023/12/20 12:13:19;;;;;;;7.67;3.00;;;;;;;;;;4989973;28;20196;-73
2023/12/20 12:15:45;;;;;;;8.87;2.87;;;;;;;;;;4974101;28;20192;-76
2023/12/20 12:18:11;;;;;;;7.67;3.20;;;;;;;;;;4990213;28;20195;-75
2023/12/20 12:20:37;;;;;;;6.07;2.93;;;;;;;;;;4989420;28;20219;-75
2023/12/20 12:23:04;;;;;;;7.23;2.97;;;;;;;;;;4988686;28;20191;-74
2023/12/20 12:25:32;;;;;;;6.00;2.83;;;;;;;;;;4983658;28;20248;-75
2023/12/20 12:27:58;;;;;;;6.07;3.20;;;;;;;;;;4988493;28;20211;-75
2023/12/20 12:30:25;;;;;;;7.70;2.93;;;;;;;;;;4988671;28;20212;-75
2023/12/20 12:32:51;;;;;;;6.83;2.90;;;;;;;;;;4990440;28;20186;-75
2023/12/20 12:35:18;;;;;;;9.60;3.03;;;;;;;;;;4971616;28;20218;-75
2023/12/20 12:37:44;;;;;;;6.47;2.80;;;;;;;;;;4987366;28;20562;-74
2023/12/20 12:40:11;;;;;;;7.83;3.00;;;;;;;;;;4990229;28;20568;-74
2023/12/20 12:42:37;;;;;;;6.50;2.70;;;;;;;;;;4990294;28;20279;-74
2023/12/20 12:45:04;;;;;;;9.83;3.67;;;;;;;;;;4994735;28;20764;-74
2023/12/20 12:47:31;;;;;;;8.70;3.17;;;;;;;;;;4985108;28;20531;-75
2023/12/20 12:49:57;;;;;;;7.30;3.00;;;;;;;;;;4988709;28;20290;-74
2023/12/20 12:52:23;;;;;;;8.23;3.37;;;;;;;;;;4983283;28;20188;-74
2023/12/20 12:54:49;;;;;;;8.17;3.33;;;;;;;;;;4986052;28;20180;-74
2023/12/20 12:57:16;;;;;;;7.37;3.60;;;;;;;;;;4987981;28;20574;-74
2023/12/20 12:59:43;;;;;;;8.27;3.30;;;;;;;;;;4989089;28;20199;-74
2023/12/20 13:02:09;;;;;;;8.87;3.23;;;;;;;;;;4988771;28;20218;-74
2023/12/20 13:04:36;;;;;;;6.20;3.30;;;;;;;;;;4987591;28;20184;-74
2023/12/20 13:07:02;;;;;;;6.90;3.53;;;;;;;;;;4989029;28;20188;-74
2023/12/20 13:09:28;;;;;;;8.83;3.47;;;;;;;;;;4989077;28;20211;-74
2023/12/20 13:11:54;;;;;;;8.43;3.17;;;;;;;;;;4989650;28;20212;-76
2023/12/20 13:14:20;;;;;;;11.80;3.80;;;;;;;;;;4981879;28;20196;-75
2023/12/20 13:16:47;;;;;;;8.87;3.53;;;;;;;;;;4985546;28;20279;-76
2023/12/20 13:19:13;;;;;;;9.47;3.40;;;;;;;;;;4993147;28;20326;-77
2023/12/20 13:21:40;;;;;;;11.83;3.33;;;;;;;;;;4984183;28;20211;-76
2023/12/20 13:24:07;;;;;;;10.30;3.30;;;;;;;;;;4990171;28;20183;-77
2023/12/20 13:26:33;;;;;;;6.93;3.20;;;;;;;;;;4985733;28;20204;-77
2023/12/20 13:28:59;;;;;;;8.03;3.27;;;;;;;;;;4984497;28;20196;-76
2023/12/20 13:31:25;;;;;;;8.23;2.93;;;;;;;;;;4985000;28;20203;-76
2023/12/20 13:33:52;;;;;;;7.53;2.60;;;;;;;;;;5002071;28;20212;-76
2023/12/20 13:36:19;;;;;;;7.03;3.40;;;;;;;;;;4986971;28;20253;-77
2023/12/20 13:38:45;;;;;;;6.83;4.20;;;;;;;;;;4984225;28;20191;-77
2023/12/20 13:41:12;;;;;;;7.23;3.60;;;;;;;;;;4969076;28;20212;-75
2023/12/20 13:43:38;;;;;;;6.10;2.77;;;;;;;;;;4986529;28;20198;-75
2023/12/20 13:46:04;;;;;;;8.00;2.87;;;;;;;;;;4985314;28;20202;-75
2023/12/20 13:48:30;;;;;;;6.90;2.50;;;;;;;;;;4969234;28;20187;-75
2023/12/20 13:50:57;;;;;;;7.90;3.10;;;;;;;;;;4969934;28;20203;-75
2023/12/20 13:53:23;;;;;;;5.73;2.90;;;;;;;;;;4969216;28;20183;-75
2023/12/20 13:55:49;;;;;;;6.37;3.10;;;;;;;;;;4983611;28;20199;-73
2023/12/20 13:58:16;;;;;;;9.80;3.93;;;;;;;;;;4977919;28;20203;-73
2023/12/20 14:00:42;;;;;;;7.57;3.57;;;;;;;;;;4987189;28;20207;-74
2023/12/20 14:03:09;;;;;;;10.30;3.70;;;;;;;;;;4986655;28;20892;-71
2023/12/20 14:05:36;;;;;;;10.73;3.30;;;;;;;;;;4968219;28;20188;-71
2023/12/20 14:08:02;;;;;;;8.30;3.47;;;;;;;;;;4969806;28;20278;-71
2023/12/20 14:10:28;;;;;;;6.97;3.53;;;;;;;;;;4985603;28;20763;-74
2023/12/20 14:12:55;;;;;;;7.93;3.63;;;;;;;;;;4986137;28;20194;-73
2023/12/20 14:15:25;;;;;;;8.07;3.40;;;;;;;;;;4988022;28;20215;-73
2023/12/20 14:17:51;;;;;;;9.80;3.63;;;;;;;;;;4984964;28;20262;-73
2023/12/20 14:20:17;;;;;;;9.97;3.63;;;;;;;;;;4986664;28;20212;-77
2023/12/20 14:22:44;;;;;;;8.33;3.20;;;;;;;;;;4986857;28;20718;-75
2023/12/20 14:25:13;;;;;;;11.87;3.40;;;;;;;;;;4985765;28;20196;-75
2023/12/20 14:27:40;;;;;;;7.70;3.30;;;;;;;;;;4986223;28;20188;-74
2023/12/20 14:30:07;;;;;;;11.17;3.90;;;;;;;;;;4986420;28;20223;-74
2023/12/20 14:32:36;;;;;;;9.30;3.30;;;;;;;;;;4987004;28;20194;-77
2023/12/20 14:35:04;;;;;;;9.63;3.77;;;;;;;;;;4985292;28;20223;-75